Aeroporto :
LOGIN :

Iscrizione | Disclaimer

   EN    FR    IT 

 










Sommario :    VFR   VFR Marginale   IFR   IFR Intensivo   IFR Molto Intensivo
Visibilità : 
Base nubi : 
>= 8 km
>= 3000ft
5 / 8 km
1000 / 3000 ft
1500m / 5 km
500 / 1000 ft
800 / 1500m
200 / 500 ft
< 800m
< 200 ft
Simboli :   Temporali  Nebbia  Neve Forte  Precipitazioni Forti  Vento > 20 kt
SIGMETs :   Varie  Temporali  Ghiacco  Turbolenza  Onda orograficha  Ceneri Vulcaniche






- Altitudine del aeroporto : 17 ft
- Codice IATA : GRQ


EHGG - Groningen Eelde

ULTIMO METAR :
  • 081255Z AUTO 02005KT 310V060 9999 NSC 21/09 Q1024 NOSIG

METARs OBSOLETI :
  • 081225Z AUTO VRB05KT 9999 NSC 21/08 Q1024 NOSIG
  • 081155Z AUTO 27003KT 190V320 9999 NSC 21/09 Q1024 NOSIG
  • 081125Z AUTO VRB02KT 9999 NSC 20/08 Q1024 NOSIG
  • 081055Z AUTO 28004KT 230V340 9999 NSC 20/07 Q1025 NOSIG
  • 081025Z AUTO VRB02KT 9999 NSC 19/08 Q1025 NOSIG
  • 080955Z AUTO VRB02KT 9999 NSC 18/08 Q1025 NOSIG

TAF TAF EHGG
Valido dal 08 a 12 ore il 09 a 18 ore UTC


081035Z 0812/0918 36005KT CAVOK



MetMap, La meteo Aeronautica in un colpo d'occhio ! - Copyright ORBIFLY Dicembre 2007 - Disclaimer

ORBIFLY MET'MAP TEAM :

Programmazione e sviluppo : Alexandra Zaïnal
Concezione : Baudouin d'Aumeries
Aiuto per la programmazione : Marc-Olivier Méhu
Supporto tecnico e logistico : Manuel Goepfert
Aiuto per la traduzione : Arnaldo La Scala

Contatto : metmap@orbifly.com




FONTI E CREDITI :

   NOAA